Time;durP1;ratioP1;P1;durP2;ratioP2;P2;SDS_P1;SDS_P2;PMS_P1;PMS_P2;Temp;Humidity;BMP_temperature;BMP_pressure;BME280_temperature;BME280_humidity;BME280_pressure;Samples;Min_cycle;Max_cycle;Signal;HPM_P1;HPM_P2
2024/01/12 00:00:15;;;;;;;13.00;5.20;;;;;;;-2.84;60.22;103374.16;4947619;28;20042;-71
2024/01/12 00:02:42;;;;;;;27.77;4.43;;;;;;;-2.68;60.54;103376.75;4922105;28;21450;-70
2024/01/12 00:05:08;;;;;;;13.88;4.38;;;;;;;-2.58;60.33;103367.00;4909011;28;20041;-71
2024/01/12 00:07:34;;;;;;;14.52;4.38;;;;;;;-2.54;60.19;103372.38;4913957;28;20197;-72
2024/01/12 00:09:59;;;;;;;12.40;5.30;;;;;;;-2.55;60.20;103373.19;4909382;28;20429;-68
2024/01/12 00:12:25;;;;;;;44.08;6.95;;;;;;;-2.50;60.48;103373.44;4917458;28;20043;-66
2024/01/12 00:14:51;;;;;;;53.28;7.65;;;;;;;-2.40;60.61;103373.16;4957381;28;20144;-66
2024/01/12 00:17:19;;;;;;;23.10;5.72;;;;;;;-2.31;60.91;103372.72;4960447;28;20466;-71
2024/01/12 00:19:48;;;;;;;7.78;3.13;;;;;;;-2.18;60.55;103369.16;4969411;28;20465;-71
2024/01/12 00:22:13;;;;;;;50.42;5.57;;;;;;;-2.21;60.58;103365.63;4961096;28;20054;-66
2024/01/12 00:24:39;;;;;;;11.88;4.22;;;;;;;-2.14;60.45;103364.28;4968679;28;20043;-69
2024/01/12 00:27:05;;;;;;;35.67;4.57;;;;;;;-2.08;60.53;103368.84;4952888;28;22287;-69
2024/01/12 00:29:30;;;;;;;28.90;4.47;;;;;;;-2.03;60.63;103365.72;4974176;28;20449;-67
2024/01/12 00:31:56;;;;;;;9.88;2.78;;;;;;;-1.97;60.80;103371.97;4949215;28;20036;-71
2024/01/12 00:34:22;;;;;;;10.90;2.05;;;;;;;-1.94;60.54;103373.00;4959559;28;20042;-69
2024/01/12 00:36:48;;;;;;;71.20;5.68;;;;;;;-1.97;60.77;103371.97;4962320;28;20622;-70
2024/01/12 00:39:15;;;;;;;26.08;3.40;;;;;;;-1.99;60.97;103382.16;4949603;28;20046;-69
2024/01/12 00:41:41;;;;;;;72.22;5.25;;;;;;;-1.82;61.00;103376.22;4964189;28;20030;-69
2024/01/12 00:44:07;;;;;;;33.63;2.47;;;;;;;-1.85;61.37;103370.91;4954328;28;20339;-71
2024/01/12 00:46:33;;;;;;;92.07;3.17;;;;;;;-1.77;60.94;103366.19;4990697;28;20023;-69
2024/01/12 00:48:58;;;;;;;4.03;0.75;;;;;;;-1.73;61.58;103380.94;4953006;28;20851;-70
2024/01/12 00:51:24;;;;;;;67.60;4.90;;;;;;;-1.67;61.54;103375.22;4959534;28;20035;-69
2024/01/12 00:53:49;;;;;;;43.75;3.25;;;;;;;-1.56;61.11;103376.66;4952844;28;20033;-69
2024/01/12 00:56:16;;;;;;;16.52;2.25;;;;;;;-1.54;60.96;103381.88;4965855;28;20033;-70
2024/01/12 00:58:41;;;;;;;3.08;0.85;;;;;;;-1.53;60.89;103378.50;4958673;28;20406;-69
2024/01/12 01:01:09;;;;;;;51.13;3.25;;;;;;;-1.54;60.94;103372.47;4966992;28;20125;-69
2024/01/12 01:03:38;;;;;;;19.70;2.03;;;;;;;-1.48;61.05;103366.78;4958081;28;20081;-69
2024/01/12 01:06:05;;;;;;;53.28;4.03;;;;;;;-1.46;61.10;103366.06;4961279;28;20050;-69
2024/01/12 01:08:30;;;;;;;67.55;4.78;;;;;;;-1.57;61.78;103364.66;4961147;28;20038;-69
2024/01/12 01:10:56;;;;;;;73.93;4.85;;;;;;;-1.72;62.30;103362.19;4950437;28;20039;-71
2024/01/12 01:13:21;;;;;;;128.98;6.60;;;;;;;-1.46;61.80;103363.50;4960716;28;20030;-70
2024/01/12 01:15:47;;;;;;;83.72;5.68;;;;;;;-1.41;61.78;103364.59;4958180;28;20564;-69
2024/01/12 01:18:13;;;;;;;59.55;4.32;;;;;;;-1.53;61.73;103361.44;4953312;28;20560;-70
2024/01/12 01:20:39;;;;;;;50.42;4.75;;;;;;;-1.52;61.81;103365.75;4969744;28;20043;-70
2024/01/12 01:23:04;;;;;;;64.80;5.07;;;;;;;-1.43;61.81;103361.06;4953675;28;20038;-70
2024/01/12 01:25:31;;;;;;;86.57;4.38;;;;;;;-1.48;61.64;103371.94;4958216;28;20632;-70
2024/01/12 01:27:56;;;;;;;23.33;1.88;;;;;;;-1.38;61.54;103380.13;4931561;28;20046;-71
2024/01/12 01:30:23;;;;;;;18.80;2.33;;;;;;;-1.40;61.78;103374.06;4926689;28;20045;-72
2024/01/12 01:32:48;;;;;;;56.38;3.40;;;;;;;-1.54;62.03;103369.91;4938125;28;20041;-72
2024/01/12 01:35:15;;;;;;;41.83;2.67;;;;;;;-1.45;61.99;103367.81;4934016;28;20462;-72
2024/01/12 01:37:41;;;;;;;74.55;3.05;;;;;;;-1.46;62.13;103366.06;4943979;28;20042;-72
2024/01/12 01:40:08;;;;;;;31.92;1.92;;;;;;;-1.34;61.25;103360.66;4943606;28;20046;-72
2024/01/12 01:42:34;;;;;;;2.08;0.85;;;;;;;-1.34;61.90;103370.03;4962346;28;20038;-73
2024/01/12 01:45:03;;;;;;;3.13;0.95;;;;;;;-1.25;61.38;103370.50;4983280;28;20031;-72
2024/01/12 01:47:30;;;;;;;36.95;2.63;;;;;;;-1.27;61.45;103372.09;4966124;28;20065;-73
2024/01/12 01:49:56;;;;;;;18.77;1.63;;;;;;;-1.20;61.35;103354.53;4954127;28;20043;-73
2024/01/12 01:52:25;;;;;;;9.38;0.85;;;;;;;-1.21;61.56;103363.03;4961494;28;20173;-72
2024/01/12 01:54:53;;;;;;;16.38;1.60;;;;;;;-1.12;61.29;103362.59;4960328;28;20153;-73
2024/01/12 01:57:20;;;;;;;1.73;0.70;;;;;;;-1.14;61.38;103359.06;4987927;28;20026;-72
2024/01/12 01:59:45;;;;;;;7.80;1.52;;;;;;;-1.08;61.45;103356.81;4972636;28;20042;-62
2024/01/12 02:02:11;;;;;;;28.90;2.88;;;;;;;-1.07;61.43;103349.97;4952266;28;20035;-64
2024/01/12 02:04:37;;;;;;;4.45;1.45;;;;;;;-1.02;61.11;103335.69;4956246;28;20089;-64
2024/01/12 02:07:03;;;;;;;5.57;1.80;;;;;;;-1.01;61.21;103340.91;4957390;28;21016;-64
2024/01/12 02:09:33;;;;;;;29.77;3.33;;;;;;;-1.05;61.20;103343.25;4966402;28;20611;-63
2024/01/12 02:11:59;;;;;;;10.15;3.05;;;;;;;-1.09;61.81;103342.19;4952841;28;20034;-65
2024/01/12 02:14:25;;;;;;;6.72;3.60;;;;;;;-1.12;62.28;103330.91;4959070;28;20039;-73
2024/01/12 02:16:52;;;;;;;9.15;3.65;;;;;;;-1.06;62.33;103342.41;4959325;28;20026;-77
2024/01/12 02:19:17;;;;;;;7.85;2.80;;;;;;;-1.14;62.26;103338.53;4947783;28;20046;-74
2024/01/12 02:21:43;;;;;;;20.45;3.05;;;;;;;-0.93;62.07;103337.81;4974520;28;20040;-74
2024/01/12 02:24:08;;;;;;;7.50;2.30;;;;;;;-1.03;62.59;103322.00;4963329;28;20450;-72
2024/01/12 02:26:34;;;;;;;18.15;4.63;;;;;;;-1.07;62.48;103320.03;4960456;28;20034;-71
2024/01/12 02:29:02;;;;;;;9.13;4.13;;;;;;;-0.99;62.61;103308.50;4953678;28;20113;-72
2024/01/12 02:31:29;;;;;;;12.10;2.80;;;;;;;-1.05;62.95;103308.19;4959477;28;20034;-71
2024/01/12 02:33:55;;;;;;;4.75;2.00;;;;;;;-0.88;63.04;103313.28;4970346;28;20058;-69
2024/01/12 02:36:25;;;;;;;6.38;2.22;;;;;;;-1.15;64.37;103313.69;4970718;28;20093;-68
2024/01/12 02:38:50;;;;;;;4.05;1.85;;;;;;;-0.81;63.72;103307.59;4960454;28;20053;-68
2024/01/12 02:41:16;;;;;;;11.40;3.70;;;;;;;-0.87;63.97;103302.19;4962746;28;20039;-69
2024/01/12 02:43:41;;;;;;;8.13;3.78;;;;;;;-0.56;62.91;103297.63;4976645;28;20030;-68
2024/01/12 02:46:07;;;;;;;8.13;3.38;;;;;;;-0.52;62.51;103301.22;4952810;28;20046;-69
2024/01/12 02:48:32;;;;;;;11.00;4.65;;;;;;;-0.47;62.52;103298.88;4961344;28;20042;-73
2024/01/12 02:50:58;;;;;;;21.02;4.38;;;;;;;-0.48;62.55;103284.25;4970368;28;20089;-72
2024/01/12 02:53:23;;;;;;;14.25;5.72;;;;;;;-0.45;62.70;103292.09;4942946;28;20042;-71
2024/01/12 02:55:49;;;;;;;9.77;4.25;;;;;;;-0.38;61.97;103287.28;4961940;28;20062;-70
2024/01/12 02:58:14;;;;;;;6.65;3.17;;;;;;;-0.30;62.28;103276.47;4957775;28;20620;-68
2024/01/12 03:00:40;;;;;;;6.32;4.00;;;;;;;-0.42;62.31;103274.25;4958195;28;20647;-70
2024/01/12 03:03:05;;;;;;;12.20;4.88;;;;;;;-0.32;62.17;103273.84;4955605;28;20039;-72
2024/01/12 03:05:31;;;;;;;17.60;4.43;;;;;;;-0.27;61.93;103281.75;4961770;28;20034;-71
2024/01/12 03:07:57;;;;;;;12.75;4.20;;;;;;;-0.24;61.57;103287.91;4961235;28;20027;-72
2024/01/12 03:10:22;;;;;;;12.18;3.33;;;;;;;-0.22;61.28;103283.69;4950235;28;20053;-71
2024/01/12 03:12:48;;;;;;;10.30;4.15;;;;;;;-0.26;61.84;103278.38;4950498;28;20517;-70
2024/01/12 03:15:14;;;;;;;10.07;3.83;;;;;;;-0.32;61.52;103278.13;4953666;28;20129;-73
2024/01/12 03:17:40;;;;;;;11.70;3.67;;;;;;;-0.38;61.63;103264.16;4961490;28;20037;-65
2024/01/12 03:20:08;;;;;;;9.73;3.45;;;;;;;-0.41;61.99;103255.47;4949547;28;20060;-75
2024/01/12 03:22:34;;;;;;;7.70;3.88;;;;;;;-0.31;61.83;103260.16;4958005;28;20049;-72
2024/01/12 03:25:00;;;;;;;5.60;3.40;;;;;;;-0.29;61.41;103262.81;4958219;28;20097;-73
2024/01/12 03:27:27;;;;;;;8.57;3.40;;;;;;;-0.41;61.70;103247.75;4963986;28;20600;-73
2024/01/12 03:29:53;;;;;;;6.10;3.50;;;;;;;-0.31;61.84;103249.91;4964154;28;20038;-73
2024/01/12 03:32:19;;;;;;;8.88;4.00;;;;;;;-0.45;61.81;103251.00;4939672;28;20074;-74
2024/01/12 03:34:44;;;;;;;6.38;3.65;;;;;;;-0.44;62.14;103245.03;4963850;28;20046;-74
2024/01/12 03:37:10;;;;;;;9.50;2.97;;;;;;;-0.46;62.43;103244.09;4957680;28;20034;-73
2024/01/12 03:39:35;;;;;;;12.02;3.35;;;;;;;-0.35;61.82;103238.63;4956920;28;20046;-73
2024/01/12 03:42:00;;;;;;;9.65;3.40;;;;;;;-0.33;61.89;103225.81;4952042;28;20219;-72
2024/01/12 03:44:26;;;;;;;7.82;2.90;;;;;;;-0.35;62.02;103232.56;4940526;28;20042;-72
2024/01/12 03:46:51;;;;;;;11.30;3.33;;;;;;;-0.37;62.29;103229.97;4972689;28;20800;-72
2024/01/12 03:49:18;;;;;;;5.18;2.63;;;;;;;-0.31;61.73;103238.75;4954910;28;20096;-72
2024/01/12 03:51:43;;;;;;;11.43;2.25;;;;;;;-0.36;61.81;103249.69;4958966;28;20043;-72
2024/01/12 03:54:10;;;;;;;7.47;2.97;;;;;;;-0.34;61.80;103249.78;4961000;28;20046;-72
2024/01/12 03:56:35;;;;;;;11.65;3.42;;;;;;;-0.24;61.86;103251.91;4961052;28;20034;-73
2024/01/12 03:59:01;;;;;;;9.88;2.80;;;;;;;-0.26;61.37;103247.53;4961219;28;20086;-72
2024/01/12 04:01:26;;;;;;;9.10;2.78;;;;;;;-0.23;61.84;103248.53;4958706;28;20515;-71
2024/01/12 04:03:52;;;;;;;11.88;3.10;;;;;;;-0.17;61.70;103242.78;4960820;28;20029;-73
2024/01/12 04:06:19;;;;;;;6.28;2.38;;;;;;;-0.15;61.34;103241.16;4954993;28;20035;-73
2024/01/12 04:08:44;;;;;;;13.63;2.70;;;;;;;-0.15;61.75;103231.78;4976231;28;20039;-73
2024/01/12 04:11:20;;;;;;;7.85;2.55;;;;;;;-0.11;61.63;103237.91;4961624;28;20061;-70
2024/01/12 04:13:45;;;;;;;12.30;1.95;;;;;;;-0.15;61.42;103236.00;4955832;28;20081;-68
2024/01/12 04:16:11;;;;;;;56.40;4.13;;;;;;;-0.15;61.41;103241.16;4953817;28;20046;-68
2024/01/12 04:18:36;;;;;;;3.72;1.45;;;;;;;-0.05;61.44;103243.31;4964984;28;20113;-67
2024/01/12 04:21:03;;;;;;;14.73;1.77;;;;;;;-0.06;61.49;103235.53;4957905;28;20452;-67
2024/01/12 04:23:29;;;;;;;5.40;1.77;;;;;;;-0.07;61.46;103239.78;4950088;28;20490;-71
2024/01/12 04:25:54;;;;;;;35.40;3.45;;;;;;;-0.14;61.79;103238.66;4953898;28;20041;-73
2024/01/12 04:28:20;;;;;;;24.42;2.47;;;;;;;-0.10;61.71;103223.34;4954174;28;20074;-72
2024/01/12 04:30:45;;;;;;;23.15;2.90;;;;;;;-0.10;61.15;103219.09;4958941;28;20077;-72
2024/01/12 04:33:10;;;;;;;4.60;1.45;;;;;;;-0.13;61.20;103217.25;4978455;28;20104;-72
2024/01/12 04:35:36;;;;;;;5.05;2.30;;;;;;;-0.16;61.15;103201.72;4940809;28;20050;-72
2024/01/12 04:38:02;;;;;;;5.05;2.08;;;;;;;-0.24;61.33;103205.66;4952199;28;20058;-72
2024/01/12 04:40:27;;;;;;;13.98;2.13;;;;;;;-0.26;61.31;103202.16;4954408;28;20457;-72
2024/01/12 04:42:52;;;;;;;4.80;2.08;;;;;;;-0.25;61.36;103214.19;4956607;28;21135;-72
2024/01/12 04:45:18;;;;;;;7.80;2.30;;;;;;;-0.28;61.80;103206.34;4947228;28;20061;-73
2024/01/12 04:47:43;;;;;;;6.32;1.95;;;;;;;-0.19;61.62;103206.75;4950387;28;20030;-72
2024/01/12 04:50:09;;;;;;;15.48;3.10;;;;;;;-0.21;61.49;103197.22;4969667;28;20081;-71
2024/01/12 04:52:34;;;;;;;9.57;2.38;;;;;;;-0.23;61.18;103181.72;4955314;28;21453;-72
2024/01/12 04:55:00;;;;;;;9.13;2.45;;;;;;;-0.21;61.49;103180.09;4956860;28;20735;-72
2024/01/12 04:57:25;;;;;;;24.65;3.35;;;;;;;-0.29;61.30;103180.59;4955495;28;20123;-72
2024/01/12 04:59:51;;;;;;;18.58;3.55;;;;;;;-0.22;61.16;103182.59;4958304;28;20135;-72
2024/01/12 05:02:16;;;;;;;8.88;2.47;;;;;;;-0.27;61.30;103177.25;4969170;28;20061;-71
2024/01/12 05:04:42;;;;;;;11.48;3.33;;;;;;;-0.26;60.97;103184.16;4972874;28;20046;-72
2024/01/12 05:07:07;;;;;;;11.07;3.13;;;;;;;-0.25;61.23;103188.47;4972923;28;20049;-72
2024/01/12 05:09:33;;;;;;;6.68;3.33;;;;;;;-0.27;61.30;103179.81;4953660;28;20045;-72
2024/01/12 05:12:03;;;;;;;9.00;3.90;;;;;;;-0.26;61.03;103175.56;4945136;28;20035;-71
2024/01/12 05:14:28;;;;;;;16.58;3.88;;;;;;;-0.50;61.54;103170.25;4939771;28;20068;-72
2024/01/12 05:16:54;;;;;;;16.08;3.40;;;;;;;-0.40;61.67;103164.69;4959692;28;20039;-72
2024/01/12 05:19:19;;;;;;;6.47;3.33;;;;;;;-0.31;61.50;103162.50;4930810;28;20100;-71
2024/01/12 05:21:44;;;;;;;10.02;3.75;;;;;;;-0.32;60.96;103163.34;4939573;28;20046;-73
2024/01/12 05:24:10;;;;;;;15.60;3.67;;;;;;;-0.36;61.07;103159.75;4935487;28;20300;-72
2024/01/12 05:26:36;;;;;;;14.60;3.95;;;;;;;-0.45;61.18;103171.34;4905299;28;20157;-72
2024/01/12 05:29:02;;;;;;;15.40;4.68;;;;;;;-0.47;60.88;103162.69;4913344;28;20249;-72
2024/01/12 05:31:30;;;;;;;8.95;3.95;;;;;;;-0.53;60.91;103159.84;4904939;28;20046;-70
2024/01/12 05:33:56;;;;;;;10.88;4.07;;;;;;;-0.92;61.72;103154.75;4907313;28;20062;-68
2024/01/12 05:36:22;;;;;;;10.75;3.88;;;;;;;-0.93;61.24;103152.97;4925317;28;20086;-68
2024/01/12 05:38:47;;;;;;;10.50;3.88;;;;;;;-1.03;61.25;103154.25;4958462;28;20048;-66
2024/01/12 05:41:12;;;;;;;6.60;2.80;;;;;;;-1.04;61.12;103145.69;4957249;28;20149;-66
2024/01/12 05:43:38;;;;;;;8.27;3.47;;;;;;;-1.13;60.49;103160.63;4952166;28;20116;-67
2024/01/12 05:46:04;;;;;;;9.63;4.22;;;;;;;-1.24;60.87;103147.31;4955767;28;20034;-66
2024/01/12 05:48:29;;;;;;;15.65;4.07;;;;;;;-1.34;61.53;103147.69;4951837;28;20064;-70
2024/01/12 05:50:55;;;;;;;13.73;4.53;;;;;;;-1.66;63.30;103151.34;4975438;28;20034;-71
2024/01/12 05:53:25;;;;;;;8.75;3.78;;;;;;;-1.48;62.69;103157.34;4987729;28;20321;-70
2024/01/12 05:55:52;;;;;;;13.10;3.88;;;;;;;-1.40;62.00;103158.56;4946221;28;20053;-67
2024/01/12 05:58:18;;;;;;;16.00;4.70;;;;;;;-1.42;61.87;103152.50;4961997;28;20662;-71
2024/01/12 06:00:43;;;;;;;7.68;3.33;;;;;;;-1.40;61.76;103156.00;4968560;28;20043;-73
2024/01/12 06:03:08;;;;;;;11.40;4.32;;;;;;;-1.49;62.22;103155.56;4957932;28;20038;-73
2024/01/12 06:05:35;;;;;;;9.85;5.00;;;;;;;-1.49;62.58;103147.88;4953864;28;20057;-73
2024/01/12 06:08:00;;;;;;;10.63;3.53;;;;;;;-1.57;63.03;103144.06;4975915;28;20039;-75
2024/01/12 06:10:26;;;;;;;9.82;3.42;;;;;;;-1.35;63.01;103148.53;4953798;28;20092;-75
2024/01/12 06:12:53;;;;;;;12.93;3.63;;;;;;;-1.18;63.02;103155.28;4970134;28;20038;-74
2024/01/12 06:15:19;;;;;;;17.27;4.10;;;;;;;-1.02;62.60;103158.56;4962851;28;20046;-74
2024/01/12 06:17:44;;;;;;;13.48;3.70;;;;;;;-1.01;62.72;103150.94;4958664;28;20756;-74
2024/01/12 06:20:11;;;;;;;8.15;2.78;;;;;;;-1.03;62.77;103155.13;4959891;28;20066;-74
2024/01/12 06:22:36;;;;;;;11.40;3.65;;;;;;;-0.99;62.56;103156.16;4957435;28;20133;-74
2024/01/12 06:25:02;;;;;;;14.95;3.85;;;;;;;-0.99;62.67;103148.47;4960894;28;20104;-73
2024/01/12 06:27:27;;;;;;;10.32;3.28;;;;;;;-1.11;62.74;103138.47;4961008;28;20132;-73
2024/01/12 06:29:53;;;;;;;8.00;3.35;;;;;;;-1.04;62.54;103147.34;4960761;28;20532;-71
2024/01/12 06:32:18;;;;;;;14.68;3.80;;;;;;;-0.97;62.69;103147.72;4963323;28;20135;-73
2024/01/12 06:34:44;;;;;;;6.82;3.00;;;;;;;-1.08;63.18;103142.88;4955774;28;20906;-75
2024/01/12 06:37:10;;;;;;;11.35;3.17;;;;;;;-1.03;63.01;103142.31;4962777;28;20654;-75
2024/01/12 06:39:35;;;;;;;8.73;2.85;;;;;;;-0.90;62.76;103145.44;4968659;28;20030;-75
2024/01/12 06:42:01;;;;;;;10.80;3.80;;;;;;;-0.83;62.74;103144.88;4970177;28;20066;-72
2024/01/12 06:44:27;;;;;;;15.30;3.33;;;;;;;-0.73;62.66;103154.72;4941811;28;20039;-71
2024/01/12 06:46:53;;;;;;;13.35;2.92;;;;;;;-0.64;62.24;103142.31;4943821;28;20341;-73
2024/01/12 06:49:20;;;;;;;8.23;2.92;;;;;;;-0.56;62.16;103143.50;4946908;28;20040;-72
2024/01/12 06:51:46;;;;;;;16.92;3.15;;;;;;;-0.58;62.17;103152.81;4934173;28;20501;-70
2024/01/12 06:54:12;;;;;;;14.30;2.80;;;;;;;-0.52;61.81;103159.06;4937878;28;20929;-70
2024/01/12 06:56:38;;;;;;;11.15;2.60;;;;;;;-0.46;61.90;103156.72;4914842;28;20108;-72
2024/01/12 06:59:05;;;;;;;8.63;3.17;;;;;;;-0.47;61.83;103157.56;4914451;28;20535;-72
2024/01/12 07:01:31;;;;;;;10.25;2.67;;;;;;;-0.46;61.78;103164.44;4905717;28;20152;-72
2024/01/12 07:03:57;;;;;;;10.40;2.60;;;;;;;-0.44;61.56;103145.69;4920404;28;20035;-74
2024/01/12 07:06:23;;;;;;;7.22;2.92;;;;;;;-0.50;62.26;103136.84;4924957;28;20054;-72
2024/01/12 07:08:49;;;;;;;9.30;2.22;;;;;;;-0.47;63.03;103139.56;4944054;28;20831;-72
2024/01/12 07:11:14;;;;;;;9.15;2.67;;;;;;;-0.24;62.48;103137.94;4961288;28;20157;-68
2024/01/12 07:13:40;;;;;;;30.13;3.00;;;;;;;-0.31;62.63;103129.09;4953894;28;20026;-70
2024/01/12 07:16:06;;;;;;;8.50;2.22;;;;;;;-0.21;62.75;103128.69;4975401;28;20425;-75
2024/01/12 07:18:31;;;;;;;15.25;2.88;;;;;;;-0.01;62.34;103120.91;4987456;28;20043;-69
2024/01/12 07:21:02;;;;;;;16.02;2.30;;;;;;;-0.02;62.19;103126.84;4964044;28;20038;-69
2024/01/12 07:23:30;;;;;;;12.05;4.05;;;;;;;0.05;61.80;103139.13;4959144;28;20119;-69
2024/01/12 07:25:57;;;;;;;13.13;1.95;;;;;;;0.07;61.74;103137.50;4937232;28;20061;-69
2024/01/12 07:28:23;;;;;;;10.52;2.58;;;;;;;0.01;62.00;103129.53;4976990;28;20181;-71
2024/01/12 07:30:49;;;;;;;12.20;2.55;;;;;;;0.12;62.03;103133.41;4954447;28;20045;-70
2024/01/12 07:33:15;;;;;;;18.73;2.92;;;;;;;0.14;61.93;103133.47;4950056;28;20085;-68
2024/01/12 07:35:41;;;;;;;17.08;2.38;;;;;;;0.13;61.72;103135.19;4946080;28;20528;-66
2024/01/12 07:38:07;;;;;;;8.85;2.83;;;;;;;0.17;61.79;103131.94;4970717;28;20227;-67
2024/01/12 07:40:32;;;;;;;16.02;2.13;;;;;;;0.14;61.28;103128.34;4957476;28;20038;-72
2024/01/12 07:42:57;;;;;;;19.67;3.00;;;;;;;0.09;61.26;103125.59;4951413;28;20042;-72
2024/01/12 07:45:23;;;;;;;11.40;2.05;;;;;;;-0.02;61.66;103134.56;4957379;28;20049;-74
2024/01/12 07:47:48;;;;;;;15.38;2.75;;;;;;;-0.43;62.52;103124.34;4964840;28;20042;-73
2024/01/12 07:50:14;;;;;;;9.07;2.45;;;;;;;-0.14;62.14;103116.97;4976350;28;20054;-73
2024/01/12 07:52:39;;;;;;;10.30;2.97;;;;;;;-0.03;61.53;103123.41;4967958;28;20042;-73
2024/01/12 07:55:05;;;;;;;11.25;2.88;;;;;;;-0.05;61.52;103124.16;4965014;28;20524;-74
2024/01/12 07:57:31;;;;;;;9.57;3.22;;;;;;;0.01;61.67;103129.53;4962494;28;20034;-68
2024/01/12 07:59:58;;;;;;;11.50;2.50;;;;;;;0.01;61.41;103129.53;4965637;28;20754;-70
2024/01/12 08:02:23;;;;;;;10.10;3.72;;;;;;;-0.00;61.42;103130.38;4959095;28;20039;-70
2024/01/12 08:04:49;;;;;;;12.27;3.55;;;;;;;-0.11;61.13;103129.06;4967622;28;20374;-71
2024/01/12 08:07:15;;;;;;;10.77;3.50;;;;;;;-0.10;61.84;103120.50;4958899;28;20566;-71
2024/01/12 08:09:40;;;;;;;15.25;3.25;;;;;;;-0.03;61.43;103122.53;4951201;28;20031;-66
2024/01/12 08:12:06;;;;;;;11.52;3.10;;;;;;;-0.02;61.37;103124.28;4958558;28;20072;-66
2024/01/12 08:14:32;;;;;;;16.75;3.67;;;;;;;-0.05;61.64;103125.03;4957766;28;20031;-66
2024/01/12 08:16:57;;;;;;;11.20;3.95;;;;;;;-0.11;61.24;103129.06;4951495;28;20030;-65
2024/01/12 08:19:23;;;;;;;20.13;4.22;;;;;;;-0.19;61.70;103132.19;4954477;28;20046;-66
2024/01/12 08:21:49;;;;;;;8.43;2.78;;;;;;;-0.06;61.78;103119.81;4948037;28;20034;-66
2024/01/12 08:24:14;;;;;;;13.18;3.70;;;;;;;-0.01;61.43;103120.91;4955398;28;20047;-66
2024/01/12 08:26:40;;;;;;;15.63;3.65;;;;;;;0.08;61.43;103118.72;4950077;28;20042;-66
2024/01/12 08:29:05;;;;;;;11.73;3.78;;;;;;;0.13;61.49;103114.59;4955310;28;20487;-67
2024/01/12 08:31:32;;;;;;;11.50;3.22;;;;;;;-0.01;61.66;103120.91;4950329;28;20705;-67
2024/01/12 08:33:58;;;;;;;5.55;1.80;;;;;;;0.15;61.38;103128.41;4975830;28;20933;-66
2024/01/12 08:36:24;;;;;;;16.10;3.80;;;;;;;0.16;61.62;103114.72;4951598;28;20029;-65
2024/01/12 08:38:50;;;;;;;17.17;3.53;;;;;;;0.25;61.84;103109.06;4946185;28;20058;-67
2024/01/12 08:41:16;;;;;;;11.68;2.85;;;;;;;0.24;61.59;103108.19;4942730;28;20027;-67
2024/01/12 08:43:42;;;;;;;9.60;2.92;;;;;;;0.32;61.74;103100.75;4945296;28;20041;-66
2024/01/12 08:46:08;;;;;;;13.70;3.05;;;;;;;0.40;61.50;103104.50;4935342;28;21278;-66
2024/01/12 08:48:34;;;;;;;13.95;3.03;;;;;;;0.48;61.74;103107.38;4944564;28;20065;-67
2024/01/12 08:51:00;;;;;;;7.45;1.58;;;;;;;0.54;61.28;103099.88;4940988;28;20043;-66
2024/01/12 08:53:26;;;;;;;22.38;2.75;;;;;;;0.59;62.20;103100.03;4955154;28;20143;-66
2024/01/12 08:55:52;;;;;;;11.05;1.80;;;;;;;0.67;62.03;103096.06;4947432;28;20342;-66
2024/01/12 08:58:18;;;;;;;13.48;1.17;;;;;;;0.85;61.92;103101.88;4956386;28;20031;-67
2024/01/12 09:00:44;;;;;;;11.68;1.30;;;;;;;1.02;61.68;103092.19;4952761;28;20093;-67
2024/01/12 09:03:09;;;;;;;15.13;1.55;;;;;;;1.04;61.63;103098.28;4941956;28;20120;-67
2024/01/12 09:05:35;;;;;;;12.95;1.85;;;;;;;1.06;61.45;103099.22;4954312;28;20500;-67
2024/01/12 09:08:01;;;;;;;10.68;2.17;;;;;;;0.96;61.54;103089.41;4962066;28;20049;-67
2024/01/12 09:10:28;;;;;;;11.68;1.85;;;;;;;1.02;61.46;103086.19;4955801;28;20038;-67
2024/01/12 09:12:54;;;;;;;20.30;1.98;;;;;;;0.99;61.77;103075.75;4943634;28;20105;-66
2024/01/12 09:15:19;;;;;;;10.13;1.73;;;;;;;1.10;61.80;103074.44;4949301;28;20047;-66
2024/01/12 09:17:45;;;;;;;14.77;1.23;;;;;;;1.22;61.58;103072.28;4972743;28;20066;-66
2024/01/12 09:20:11;;;;;;;25.30;5.20;;;;;;;1.30;61.62;103069.97;4952999;28;20038;-66
2024/01/12 09:22:36;;;;;;;27.17;3.38;;;;;;;1.46;61.22;103072.28;4958578;28;20113;-67
2024/01/12 09:25:02;;;;;;;17.25;3.00;;;;;;;1.37;60.93;103071.91;4961002;28;20092;-66
2024/01/12 09:27:28;;;;;;;28.42;4.05;;;;;;;1.29;61.13;103074.25;4957946;28;20124;-66
2024/01/12 09:29:53;;;;;;;14.13;3.20;;;;;;;1.27;61.04;103069.88;4944900;28;20047;-66
2024/01/12 09:32:19;;;;;;;14.52;2.45;;;;;;;1.28;60.87;103066.44;4953835;28;20034;-66
2024/01/12 09:34:45;;;;;;;15.63;1.80;;;;;;;1.26;61.08;103066.41;4955382;28;20109;-66
2024/01/12 09:37:10;;;;;;;15.57;2.47;;;;;;;1.08;62.27;103066.66;4935726;28;20062;-67
2024/01/12 09:39:36;;;;;;;15.25;3.13;;;;;;;1.20;62.14;103070.50;4953152;28;20046;-67
2024/01/12 09:42:02;;;;;;;12.25;2.25;;;;;;;1.26;61.54;103066.41;4949481;28;20057;-67
2024/01/12 09:44:29;;;;;;;15.95;2.83;;;;;;;1.20;61.64;103071.34;4955357;28;20057;-66
2024/01/12 09:46:58;;;;;;;14.43;4.20;;;;;;;1.25;61.52;103076.66;4944406;28;20046;-67
2024/01/12 09:49:29;;;;;;;16.15;1.92;;;;;;;1.34;61.68;103076.97;4955697;28;20109;-67
2024/01/12 09:51:58;;;;;;;21.10;3.83;;;;;;;1.37;61.50;103060.72;4950267;28;20058;-66
2024/01/12 09:54:23;;;;;;;9.18;1.98;;;;;;;1.14;61.53;103072.84;4957762;28;20039;-67
2024/01/12 09:56:51;;;;;;;14.60;1.65;;;;;;;1.22;61.85;103074.00;4953465;28;20077;-66
2024/01/12 09:59:17;;;;;;;15.85;1.83;;;;;;;1.22;61.97;103082.59;4955520;28;20101;-67
2024/01/12 10:01:43;;;;;;;6.43;1.65;;;;;;;1.24;61.77;103068.06;4935292;28;20433;-67
2024/01/12 10:04:09;;;;;;;17.98;2.22;;;;;;;1.21;61.42;103079.97;4937405;28;20536;-67
2024/01/12 10:06:35;;;;;;;10.65;1.52;;;;;;;1.17;61.59;103072.94;4938680;28;20264;-66
2024/01/12 10:09:01;;;;;;;11.38;1.42;;;;;;;1.24;61.74;103065.50;4934921;28;20031;-68
2024/01/12 10:11:27;;;;;;;11.55;1.67;;;;;;;1.13;61.76;103060.78;4939051;28;20414;-68
2024/01/12 10:13:53;;;;;;;14.70;1.42;;;;;;;1.32;61.64;103053.72;4940864;28;20050;-68
2024/01/12 10:16:20;;;;;;;19.98;2.05;;;;;;;1.32;61.42;103053.72;4949273;28;20031;-65
2024/01/12 10:18:46;;;;;;;13.90;1.55;;;;;;;1.32;61.36;103061.44;4932748;28;20568;-68
2024/01/12 10:21:14;;;;;;;15.77;1.77;;;;;;;1.47;61.06;103063.72;4938840;28;20034;-66
2024/01/12 10:23:40;;;;;;;14.63;1.73;;;;;;;1.32;61.48;103060.59;4946725;28;20039;-68
2024/01/12 10:26:08;;;;;;;16.98;1.80;;;;;;;1.36;61.14;103067.59;4914919;28;20049;-65
2024/01/12 10:28:34;;;;;;;21.33;3.17;;;;;;;1.43;60.59;103066.13;4912164;28;20219;-68
2024/01/12 10:31:06;;;;;;;33.55;2.30;;;;;;;1.39;61.33;103062.53;4887412;28;20046;-66
2024/01/12 10:33:33;;;;;;;14.73;1.20;;;;;;;1.69;60.77;103060.13;4910042;28;21052;-68
2024/01/12 10:36:13;;;;;;;20.95;3.30;;;;;;;1.68;60.49;103060.06;4902531;28;20630;-66
2024/01/12 10:38:42;;;;;;;17.75;2.92;;;;;;;1.70;60.66;103058.41;4960067;28;20843;-68
2024/01/12 10:41:11;;;;;;;12.02;3.05;;;;;;;1.83;60.12;103055.41;4947656;28;20096;-69
2024/01/12 10:43:38;;;;;;;19.88;2.72;;;;;;;1.66;60.62;103057.47;4955512;28;20102;-68
2024/01/12 10:46:21;;;;;;;12.70;3.10;;;;;;;1.84;59.91;103052.03;4946141;28;20093;-68
2024/01/12 10:49:05;;;;;;;22.58;4.10;;;;;;;1.98;59.41;103049.00;4953529;28;20031;-66
2024/01/12 10:51:36;;;;;;;21.58;3.78;;;;;;;2.03;59.08;103052.56;4953461;28;20090;-68
2024/01/12 10:54:09;;;;;;;10.52;3.33;;;;;;;2.08;59.11;103032.94;4959384;28;20073;-67
2024/01/12 10:56:35;;;;;;;21.95;3.17;;;;;;;2.04;59.46;103039.75;4948771;28;20034;-67
2024/01/12 10:59:04;;;;;;;20.13;2.63;;;;;;;2.14;59.00;103035.72;4955331;28;20725;-65
2024/01/12 11:01:32;;;;;;;14.65;3.10;;;;;;;2.11;58.76;103031.34;4958075;28;20031;-68
2024/01/12 11:04:00;;;;;;;20.58;2.60;;;;;;;2.27;58.80;103022.34;4955978;28;20496;-68
2024/01/12 11:06:29;;;;;;;17.98;2.10;;;;;;;2.32;58.54;103025.94;4964688;28;20046;-66
2024/01/12 11:08:56;;;;;;;18.80;1.95;;;;;;;2.23;58.47;103014.47;4923954;28;20608;-66
2024/01/12 11:11:26;;;;;;;20.35;3.22;;;;;;;2.23;58.96;103014.47;4958345;28;20039;-67
2024/01/12 11:13:53;;;;;;;19.30;2.38;;;;;;;2.11;58.34;103009.84;4973327;28;20182;-68
2024/01/12 11:16:21;;;;;;;21.15;2.80;;;;;;;1.99;58.93;103009.47;4961581;28;21569;-67